Time;durP1;ratioP1;P1;durP2;ratioP2;P2;SDS_P1;SDS_P2;PMS_P1;PMS_P2;Temp;Humidity;BMP_temperature;BMP_pressure;BME280_temperature;BME280_humidity;BME280_pressure;Samples;Min_cycle;Max_cycle;Signal;HPM_P1;HPM_P2
2021/06/14 00:00:11;;;;;;;5.50;3.30;;;;;;;;;;5047917;28;20017;-63
2021/06/14 00:02:37;;;;;;;4.85;2.80;;;;;;;;;;5047149;28;20634;-62
2021/06/14 00:05:03;;;;;;;4.95;2.90;;;;;;;;;;5047257;28;20021;-63
2021/06/14 00:07:28;;;;;;;4.63;3.10;;;;;;;;;;5047097;28;20032;-63
2021/06/14 00:09:54;;;;;;;5.50;2.90;;;;;;;;;;5047823;28;20377;-62
2021/06/14 00:12:22;;;;;;;6.00;3.00;;;;;;;;;;5051191;28;20044;-62
2021/06/14 00:14:49;;;;;;;6.60;3.40;;;;;;;;;;5047508;28;20434;-63
2021/06/14 00:17:14;;;;;;;8.00;3.15;;;;;;;;;;5051565;28;20020;-62
2021/06/14 00:19:39;;;;;;;7.95;3.08;;;;;;;;;;5051493;28;20392;-63
2021/06/14 00:22:05;;;;;;;6.80;3.40;;;;;;;;;;5050987;28;20028;-62
2021/06/14 00:24:30;;;;;;;5.65;3.20;;;;;;;;;;5049203;28;20028;-63
2021/06/14 00:26:55;;;;;;;7.97;3.40;;;;;;;;;;5048426;28;20443;-63
2021/06/14 00:29:20;;;;;;;7.67;3.53;;;;;;;;;;5050059;28;20024;-62
2021/06/14 00:31:45;;;;;;;5.35;3.28;;;;;;;;;;5050972;28;20345;-62
2021/06/14 00:34:10;;;;;;;6.60;3.67;;;;;;;;;;5050257;28;20029;-63
2021/06/14 00:36:36;;;;;;;4.85;3.38;;;;;;;;;;5050211;28;20376;-63
2021/06/14 00:39:01;;;;;;;6.93;3.60;;;;;;;;;;5051043;28;20029;-63
2021/06/14 00:41:26;;;;;;;5.75;3.00;;;;;;;;;;5049077;28;20025;-62
2021/06/14 00:43:51;;;;;;;6.38;3.50;;;;;;;;;;5050355;28;20032;-63
2021/06/14 00:46:16;;;;;;;4.50;3.22;;;;;;;;;;5050068;28;20032;-63
2021/06/14 00:48:42;;;;;;;5.43;3.58;;;;;;;;;;5050383;28;20040;-63
2021/06/14 00:51:07;;;;;;;7.22;3.45;;;;;;;;;;5050903;28;20024;-63
2021/06/14 00:53:34;;;;;;;7.90;3.72;;;;;;;;;;5050063;28;20048;-63
2021/06/14 00:56:00;;;;;;;6.32;3.80;;;;;;;;;;5049404;28;20029;-63
2021/06/14 00:58:26;;;;;;;6.63;3.75;;;;;;;;;;5050759;28;20087;-63
2021/06/14 01:00:51;;;;;;;7.35;3.90;;;;;;;;;;5049980;28;20498;-63
2021/06/14 01:03:17;;;;;;;5.90;3.67;;;;;;;;;;5050321;28;20052;-62
2021/06/14 01:05:47;;;;;;;7.22;3.75;;;;;;;;;;5050627;28;20025;-61
2021/06/14 01:08:12;;;;;;;5.47;3.35;;;;;;;;;;5048658;28;20558;-63
2021/06/14 01:10:38;;;;;;;8.85;4.25;;;;;;;;;;5049900;28;20021;-62
2021/06/14 01:13:11;;;;;;;6.38;3.65;;;;;;;;;;5047416;28;20388;-62
2021/06/14 01:15:49;;;;;;;7.65;3.92;;;;;;;;;;5049122;28;20036;-62
2021/06/14 01:18:18;;;;;;;6.22;3.42;;;;;;;;;;5050376;28;20029;-62
2021/06/14 01:20:55;;;;;;;6.95;3.58;;;;;;;;;;5049197;28;20033;-62
2021/06/14 01:23:26;;;;;;;7.75;4.03;;;;;;;;;;5049139;28;20036;-63
2021/06/14 01:26:02;;;;;;;7.80;3.80;;;;;;;;;;5049790;28;20578;-62
2021/06/14 01:28:28;;;;;;;7.88;3.72;;;;;;;;;;5049394;28;20460;-63
2021/06/14 01:30:54;;;;;;;8.55;3.85;;;;;;;;;;5050423;28;20026;-63
2021/06/14 01:33:22;;;;;;;7.18;3.60;;;;;;;;;;5048653;28;20087;-62
2021/06/14 01:35:52;;;;;;;10.88;3.53;;;;;;;;;;5049388;28;20109;-64
2021/06/14 01:38:18;;;;;;;8.32;3.78;;;;;;;;;;5048239;28;20100;-62
2021/06/14 01:40:43;;;;;;;5.72;3.83;;;;;;;;;;5049302;28;20052;-62
2021/06/14 01:43:11;;;;;;;6.70;4.07;;;;;;;;;;5049924;28;20710;-63
2021/06/14 01:45:38;;;;;;;6.00;3.55;;;;;;;;;;5048771;28;20035;-63
2021/06/14 01:48:04;;;;;;;4.63;3.15;;;;;;;;;;5048670;28;20032;-62
2021/06/14 01:50:30;;;;;;;9.32;3.67;;;;;;;;;;5049364;28;20444;-62
2021/06/14 01:52:56;;;;;;;6.32;3.70;;;;;;;;;;5049647;28;20051;-62
2021/06/14 01:55:21;;;;;;;6.13;3.80;;;;;;;;;;5049515;28;20037;-62
2021/06/14 01:57:47;;;;;;;6.57;3.30;;;;;;;;;;5049359;28;20046;-63
2021/06/14 02:00:13;;;;;;;7.25;4.15;;;;;;;;;;5048545;28;20072;-62
2021/06/14 02:02:39;;;;;;;6.93;3.33;;;;;;;;;;5048707;28;20024;-62
2021/06/14 02:05:05;;;;;;;5.40;3.65;;;;;;;;;;5048595;28;20056;-63
2021/06/14 02:07:31;;;;;;;5.50;3.88;;;;;;;;;;5048512;28;20405;-62
2021/06/14 02:09:56;;;;;;;7.75;3.55;;;;;;;;;;5048765;28;20021;-63
2021/06/14 02:12:22;;;;;;;8.88;3.22;;;;;;;;;;5048334;28;20025;-62
2021/06/14 02:14:47;;;;;;;6.95;3.67;;;;;;;;;;5048027;28;20517;-62
2021/06/14 02:17:14;;;;;;;6.55;3.70;;;;;;;;;;5049280;28;20021;-62
2021/06/14 02:19:40;;;;;;;7.18;2.88;;;;;;;;;;5048431;28;20028;-63
2021/06/14 02:22:06;;;;;;;6.65;3.08;;;;;;;;;;5048357;28;20021;-62
2021/06/14 02:24:31;;;;;;;6.45;3.15;;;;;;;;;;5049339;28;20073;-62
2021/06/14 02:26:56;;;;;;;5.72;2.88;;;;;;;;;;5047932;28;20476;-63
2021/06/14 02:29:21;;;;;;;5.05;2.40;;;;;;;;;;5048668;28;20040;-62
2021/06/14 02:31:47;;;;;;;6.05;3.50;;;;;;;;;;5048471;28;20297;-62
2021/06/14 02:34:12;;;;;;;7.38;2.90;;;;;;;;;;5046987;28;20392;-61
2021/06/14 02:36:37;;;;;;;7.28;2.90;;;;;;;;;;5048452;28;20021;-61
2021/06/14 02:39:07;;;;;;;6.38;2.75;;;;;;;;;;5047506;28;20071;-62
2021/06/14 02:41:32;;;;;;;;;;;;;;;;;;5049572;28;20032;-62
2021/06/14 02:44:04;;;;;;;7.43;3.10;;;;;;;;;;5048560;28;19909;-63
2021/06/14 02:46:29;;;;;;;6.53;3.38;;;;;;;;;;5047571;28;20021;-62
2021/06/14 02:48:55;;;;;;;7.25;3.17;;;;;;;;;;5048307;28;20036;-63
2021/06/14 02:51:20;;;;;;;7.65;2.78;;;;;;;;;;5047127;28;20373;-63
2021/06/14 02:53:46;;;;;;;6.30;2.92;;;;;;;;;;5048248;28;20095;-63
2021/06/14 02:56:16;;;;;;;4.40;2.78;;;;;;;;;;5047601;28;20029;-63
2021/06/14 02:58:44;;;;;;;6.90;3.03;;;;;;;;;;5048055;28;20078;-63
2021/06/14 03:01:10;;;;;;;6.32;3.33;;;;;;;;;;5046966;28;20107;-63
2021/06/14 03:03:35;;;;;;;6.43;3.20;;;;;;;;;;5047753;28;20109;-63
2021/06/14 03:06:01;;;;;;;7.90;3.10;;;;;;;;;;5048300;28;20017;-63
2021/06/14 03:08:27;;;;;;;4.53;2.88;;;;;;;;;;5048358;28;20025;-63
2021/06/14 03:10:53;;;;;;;8.30;3.40;;;;;;;;;;5046689;28;20349;-63
2021/06/14 03:13:19;;;;;;;6.47;3.00;;;;;;;;;;5046824;28;20083;-64
2021/06/14 03:15:44;;;;;;;6.75;3.50;;;;;;;;;;5043375;28;20582;-62
2021/06/14 03:18:10;;;;;;;7.05;3.70;;;;;;;;;;5047849;28;20029;-63
2021/06/14 03:20:36;;;;;;;5.78;3.47;;;;;;;;;;5047282;28;20460;-63
2021/06/14 03:23:01;;;;;;;5.15;3.20;;;;;;;;;;5046568;28;20075;-63
2021/06/14 03:25:26;;;;;;;5.20;3.30;;;;;;;;;;5047937;28;20091;-64
2021/06/14 03:27:52;;;;;;;8.07;3.58;;;;;;;;;;5047742;28;20025;-64
2021/06/14 03:30:22;;;;;;;5.85;3.40;;;;;;;;;;5048267;28;20432;-64
2021/06/14 03:32:48;;;;;;;4.93;3.30;;;;;;;;;;5047543;28;20056;-63
2021/06/14 03:35:14;;;;;;;7.18;3.75;;;;;;;;;;5047244;28;20342;-63
2021/06/14 03:37:39;;;;;;;6.97;3.55;;;;;;;;;;5047685;28;20118;-63
2021/06/14 03:40:05;;;;;;;5.35;3.22;;;;;;;;;;5047167;28;20161;-63
2021/06/14 03:42:31;;;;;;;7.03;3.15;;;;;;;;;;5047628;28;20041;-62
2021/06/14 03:44:56;;;;;;;7.22;3.20;;;;;;;;;;5045963;28;20100;-63
2021/06/14 03:47:22;;;;;;;8.00;3.72;;;;;;;;;;5045842;28;20040;-63
2021/06/14 03:49:47;;;;;;;8.30;3.70;;;;;;;;;;5048035;28;20210;-63
2021/06/14 03:52:12;;;;;;;6.78;3.67;;;;;;;;;;5047332;28;20139;-63
2021/06/14 03:54:37;;;;;;;6.15;3.20;;;;;;;;;;5045600;28;20360;-63
2021/06/14 03:57:03;;;;;;;8.18;3.55;;;;;;;;;;5047806;28;20021;-64
2021/06/14 03:59:28;;;;;;;5.68;3.30;;;;;;;;;;5046715;28;20044;-63
2021/06/14 04:01:53;;;;;;;4.88;3.25;;;;;;;;;;5047132;28;20138;-63
2021/06/14 04:06:50;;;;;;;7.35;3.70;;;;;;;;;;5047351;28;20097;-63
2021/06/14 04:09:15;;;;;;;6.35;3.75;;;;;;;;;;5047099;28;20139;-63
2021/06/14 04:11:40;;;;;;;5.43;3.17;;;;;;;;;;5046222;28;20036;-63
2021/06/14 04:14:05;;;;;;;6.85;3.72;;;;;;;;;;5047842;28;20057;-63
2021/06/14 04:16:31;;;;;;;8.95;3.67;;;;;;;;;;5044566;28;20025;-63
2021/06/14 04:18:56;;;;;;;7.20;3.80;;;;;;;;;;5046391;28;20040;-63
2021/06/14 04:21:21;;;;;;;5.67;3.20;;;;;;;;;;5048037;28;20865;-63
2021/06/14 04:23:46;;;;;;;5.00;3.00;;;;;;;;;;5046638;28;20283;-62
2021/06/14 04:26:11;;;;;;;5.55;3.20;;;;;;;;;;5046922;28;20024;-62
2021/06/14 04:28:37;;;;;;;7.03;3.33;;;;;;;;;;5046123;28;20483;-62
2021/06/14 04:31:02;;;;;;;6.20;3.28;;;;;;;;;;5046588;28;20511;-63
2021/06/14 04:33:27;;;;;;;5.80;3.15;;;;;;;;;;5047247;28;20041;-62
2021/06/14 04:35:53;;;;;;;6.65;3.45;;;;;;;;;;5046365;28;20021;-62
2021/06/14 04:38:18;;;;;;;6.72;3.50;;;;;;;;;;5046736;28;20028;-63
2021/06/14 04:40:43;;;;;;;4.95;3.20;;;;;;;;;;5046768;28;20031;-63
2021/06/14 04:43:08;;;;;;;7.50;3.43;;;;;;;;;;5051397;28;20039;-64
2021/06/14 04:45:34;;;;;;;4.07;3.03;;;;;;;;;;5046978;28;20317;-63
2021/06/14 04:47:59;;;;;;;5.60;2.80;;;;;;;;;;5044824;28;20280;-63
2021/06/14 04:50:24;;;;;;;5.55;3.30;;;;;;;;;;5046929;28;20035;-62
2021/06/14 04:52:50;;;;;;;4.28;3.17;;;;;;;;;;5046780;28;20029;-62
2021/06/14 04:55:15;;;;;;;7.53;3.50;;;;;;;;;;5047666;28;20075;-63
2021/06/14 04:57:40;;;;;;;5.78;3.30;;;;;;;;;;5048481;28;20064;-63
2021/06/14 05:00:06;;;;;;;8.23;3.70;;;;;;;;;;5049839;28;20024;-63
2021/06/14 05:02:32;;;;;;;8.68;3.83;;;;;;;;;;5050203;28;20141;-62
2021/06/14 05:04:57;;;;;;;7.07;3.40;;;;;;;;;;5050995;28;20048;-62
2021/06/14 05:07:23;;;;;;;6.18;3.90;;;;;;;;;;5050389;28;20052;-63
2021/06/14 05:09:48;;;;;;;4.35;3.10;;;;;;;;;;5051343;28;20447;-61
2021/06/14 05:12:13;;;;;;;5.53;3.47;;;;;;;;;;5050076;28;20709;-63
2021/06/14 05:14:38;;;;;;;7.10;3.13;;;;;;;;;;5050167;28;20303;-61
2021/06/14 05:17:03;;;;;;;6.68;3.30;;;;;;;;;;5049673;28;20646;-64
2021/06/14 05:19:29;;;;;;;3.90;3.10;;;;;;;;;;5048264;28;20467;-64
2021/06/14 05:21:54;;;;;;;4.57;2.83;;;;;;;;;;5048981;28;20369;-64
2021/06/14 05:24:19;;;;;;;6.55;3.05;;;;;;;;;;5050085;28;20307;-64
2021/06/14 05:26:45;;;;;;;6.77;3.30;;;;;;;;;;5049900;28;20037;-67
2021/06/14 05:29:10;;;;;;;6.33;3.27;;;;;;;;;;5047785;28;20726;-64
2021/06/14 05:31:35;;;;;;;5.37;3.13;;;;;;;;;;5043907;28;20446;-66
2021/06/14 05:34:00;;;;;;;6.93;3.50;;;;;;;;;;5050161;28;20719;-64
2021/06/14 05:36:25;;;;;;;7.57;3.00;;;;;;;;;;5046681;28;20341;-65
2021/06/14 05:38:51;;;;;;;5.93;3.05;;;;;;;;;;5048879;28;20766;-67
2021/06/14 05:41:16;;;;;;;4.20;2.83;;;;;;;;;;5050151;28;20035;-67
2021/06/14 05:43:41;;;;;;;7.15;3.38;;;;;;;;;;5050278;28;20299;-66
2021/06/14 05:46:06;;;;;;;5.07;3.10;;;;;;;;;;5048981;28;20186;-66
2021/06/14 05:48:32;;;;;;;4.55;3.00;;;;;;;;;;5050019;28;20044;-65
2021/06/14 05:50:57;;;;;;;5.75;3.03;;;;;;;;;;5049107;28;20025;-65
2021/06/14 05:53:23;;;;;;;5.20;3.22;;;;;;;;;;5049764;28;20052;-66
2021/06/14 05:55:49;;;;;;;5.63;3.00;;;;;;;;;;5049298;28;20190;-66
2021/06/14 05:58:14;;;;;;;5.70;3.30;;;;;;;;;;5049940;28;20121;-66
2021/06/14 06:00:40;;;;;;;5.63;2.88;;;;;;;;;;5050353;28;20021;-65
2021/06/14 06:03:05;;;;;;;4.50;3.00;;;;;;;;;;5049474;28;20082;-64
2021/06/14 06:05:30;;;;;;;6.97;3.00;;;;;;;;;;5049917;28;20020;-64
2021/06/14 06:07:55;;;;;;;6.25;2.90;;;;;;;;;;5048748;28;20048;-65
2021/06/14 06:10:20;;;;;;;5.33;2.77;;;;;;;;;;5048479;28;20021;-65
2021/06/14 06:12:46;;;;;;;4.75;2.78;;;;;;;;;;5051103;28;20650;-65
2021/06/14 06:15:17;;;;;;;5.43;3.10;;;;;;;;;;5049666;28;20043;-65
2021/06/14 06:17:42;;;;;;;4.40;2.70;;;;;;;;;;5049137;28;20290;-64
2021/06/14 06:20:09;;;;;;;5.07;2.90;;;;;;;;;;5049606;28;20456;-63
2021/06/14 06:22:35;;;;;;;5.43;2.97;;;;;;;;;;5049468;28;20024;-64
2021/06/14 06:25:01;;;;;;;6.03;3.00;;;;;;;;;;5050310;28;20075;-64
2021/06/14 06:27:26;;;;;;;4.95;2.78;;;;;;;;;;5049505;28;20021;-64
2021/06/14 06:29:51;;;;;;;6.35;3.30;;;;;;;;;;5049500;28;20025;-65
2021/06/14 06:32:16;;;;;;;7.53;3.10;;;;;;;;;;5049138;28;20045;-65
2021/06/14 06:34:43;;;;;;;4.87;2.40;;;;;;;;;;5049692;28;20037;-65
2021/06/14 06:37:08;;;;;;;6.30;2.70;;;;;;;;;;5049107;28;20274;-65
2021/06/14 06:39:33;;;;;;;4.67;2.80;;;;;;;;;;5049858;28;20464;-64
2021/06/14 06:42:00;;;;;;;4.17;2.70;;;;;;;;;;5049334;28;20255;-65
2021/06/14 06:44:26;;;;;;;5.32;2.83;;;;;;;;;;5044096;28;20264;-65
2021/06/14 06:46:51;;;;;;;6.00;2.93;;;;;;;;;;5049046;28;20549;-64
2021/06/14 06:49:16;;;;;;;5.67;2.83;;;;;;;;;;5049245;28;20279;-64
2021/06/14 06:51:41;;;;;;;4.40;2.50;;;;;;;;;;5049132;28;20260;-64
2021/06/14 06:54:13;;;;;;;6.37;2.73;;;;;;;;;;5049257;28;20326;-64
2021/06/14 06:56:42;;;;;;;4.30;3.10;;;;;;;;;;5048731;28;20255;-65
2021/06/14 06:59:07;;;;;;;6.32;2.92;;;;;;;;;;5049043;28;20033;-65
2021/06/14 07:01:32;;;;;;;8.35;3.17;;;;;;;;;;5049154;28;20025;-64
2021/06/14 07:03:58;;;;;;;5.55;2.67;;;;;;;;;;5049235;28;20031;-66
2021/06/14 07:06:23;;;;;;;4.50;2.25;;;;;;;;;;5048993;28;20384;-64
2021/06/14 07:08:48;;;;;;;6.90;3.10;;;;;;;;;;5048878;28;20039;-64
2021/06/14 07:11:13;;;;;;;5.10;2.80;;;;;;;;;;5049016;28;20256;-64
2021/06/14 07:13:38;;;;;;;5.67;2.97;;;;;;;;;;5048653;28;20539;-64
2021/06/14 07:16:04;;;;;;;3.90;2.60;;;;;;;;;;5048722;28;20279;-64
2021/06/14 07:18:29;;;;;;;6.05;2.40;;;;;;;;;;5048803;28;20274;-65
2021/06/14 07:20:57;;;;;;;5.20;2.17;;;;;;;;;;5047288;28;20025;-65
2021/06/14 07:23:22;;;;;;;7.25;2.90;;;;;;;;;;5042379;28;20259;-65
2021/06/14 07:25:47;;;;;;;3.80;2.07;;;;;;;;;;5048227;28;20035;-64
2021/06/14 07:28:12;;;;;;;4.37;2.40;;;;;;;;;;5034255;28;21044;-65
2021/06/14 07:30:37;;;;;;;5.13;2.40;;;;;;;;;;5047517;28;20279;-64
2021/06/14 07:33:03;;;;;;;7.57;2.97;;;;;;;;;;5048435;28;20507;-65
2021/06/14 07:35:28;;;;;;;7.53;3.28;;;;;;;;;;5048299;28;20032;-65
2021/06/14 07:37:53;;;;;;;6.43;3.10;;;;;;;;;;5048675;28;20032;-64
2021/06/14 07:40:18;;;;;;;7.15;3.20;;;;;;;;;;5047678;28;20737;-65
2021/06/14 07:42:44;;;;;;;7.78;3.22;;;;;;;;;;5048699;28;20452;-63
2021/06/14 07:45:09;;;;;;;6.68;3.20;;;;;;;;;;5048504;28;20013;-65
2021/06/14 07:47:34;;;;;;;6.10;3.38;;;;;;;;;;5048278;28;20067;-65
2021/06/14 07:50:00;;;;;;;5.13;2.93;;;;;;;;;;5048220;28;20393;-65
2021/06/14 07:52:25;;;;;;;5.78;3.13;;;;;;;;;;5047914;28;20263;-65
2021/06/14 07:54:50;;;;;;;6.70;2.53;;;;;;;;;;5048561;28;20060;-65
2021/06/14 07:57:16;;;;;;;7.32;2.80;;;;;;;;;;5048220;28;20024;-64
2021/06/14 07:59:41;;;;;;;5.60;3.03;;;;;;;;;;5048373;28;20028;-64
2021/06/14 08:02:07;;;;;;;6.33;2.80;;;;;;;;;;5047445;28;20357;-64
2021/06/14 08:04:32;;;;;;;7.28;3.03;;;;;;;;;;5048290;28;20271;-65
2021/06/14 08:06:57;;;;;;;6.73;3.13;;;;;;;;;;5048438;28;20024;-65
2021/06/14 08:09:31;;;;;;;5.00;2.83;;;;;;;;;;5048136;28;20259;-66
2021/06/14 08:11:59;;;;;;;4.05;2.65;;;;;;;;;;5047856;28;20256;-66
2021/06/14 08:14:24;;;;;;;9.15;3.67;;;;;;;;;;5048135;28;20048;-64
2021/06/14 08:16:50;;;;;;;8.50;3.10;;;;;;;;;;5048442;28;20369;-64
2021/06/14 08:19:25;;;;;;;6.75;2.63;;;;;;;;;;5048130;28;20391;-64
2021/06/14 08:27:06;;;;;;;5.88;2.60;;;;;;;;;;5048113;28;20032;-64
2021/06/14 08:29:31;;;;;;;8.20;2.80;;;;;;;;;;5047894;28;20021;-64
2021/06/14 08:31:56;;;;;;;4.60;2.57;;;;;;;;;;5049175;28;20013;-64
2021/06/14 08:34:21;;;;;;;6.93;3.03;;;;;;;;;;5051638;28;20287;-64
2021/06/14 08:36:47;;;;;;;5.25;2.30;;;;;;;;;;5051732;28;20044;-64
2021/06/14 08:39:12;;;;;;;7.80;2.88;;;;;;;;;;5051864;28;20025;-64
2021/06/14 08:41:38;;;;;;;6.57;3.08;;;;;;;;;;5051500;28;20049;-64
2021/06/14 08:44:04;;;;;;;5.43;2.80;;;;;;;;;;5049739;28;20017;-64
2021/06/14 08:46:29;;;;;;;6.28;2.85;;;;;;;;;;5051022;28;20021;-64
2021/06/14 08:48:54;;;;;;;6.47;2.88;;;;;;;;;;5051639;28;20049;-64
2021/06/14 08:51:20;;;;;;;6.05;2.50;;;;;;;;;;5051132;28;20032;-64
2021/06/14 08:53:51;;;;;;;5.25;2.60;;;;;;;;;;5051736;28;20082;-64
2021/06/14 08:56:16;;;;;;;4.45;2.47;;;;;;;;;;5050810;28;20048;-64
2021/06/14 08:58:41;;;;;;;6.47;2.70;;;;;;;;;;5051057;28;20053;-65
2021/06/14 09:01:07;;;;;;;6.90;2.77;;;;;;;;;;5051275;28;20392;-63
2021/06/14 09:03:32;;;;;;;5.97;2.95;;;;;;;;;;5051274;28;20333;-64
2021/06/14 09:05:57;;;;;;;6.22;2.92;;;;;;;;;;5051601;28;20470;-64
2021/06/14 09:08:24;;;;;;;7.43;3.33;;;;;;;;;;5050875;28;20029;-64
2021/06/14 09:10:50;;;;;;;5.22;2.53;;;;;;;;;;5049488;28;20418;-64
2021/06/14 09:13:17;;;;;;;7.40;2.72;;;;;;;;;;5051080;28;20029;-64
2021/06/14 09:15:43;;;;;;;5.65;2.60;;;;;;;;;;5051214;28;20369;-64
2021/06/14 09:18:15;;;;;;;6.93;2.45;;;;;;;;;;5050401;28;20036;-64
2021/06/14 09:20:51;;;;;;;8.48;3.58;;;;;;;;;;5050865;28;20383;-65
2021/06/14 09:23:16;;;;;;;5.47;2.78;;;;;;;;;;5050850;28;20115;-65
2021/06/14 09:25:46;;;;;;;4.43;2.33;;;;;;;;;;5050967;28;20044;-65
2021/06/14 09:28:11;;;;;;;5.85;2.47;;;;;;;;;;5051113;28;20267;-65
2021/06/14 09:30:36;;;;;;;9.80;2.93;;;;;;;;;;5051199;28;20160;-64
2021/06/14 09:33:24;;;;;;;5.22;2.80;;;;;;;;;;5050674;28;20758;-65
2021/06/14 09:35:50;;;;;;;6.13;2.17;;;;;;;;;;5051236;28;20110;-64
2021/06/14 09:38:17;;;;;;;5.00;2.20;;;;;;;;;;5050257;28;20521;-64
2021/06/14 09:40:42;;;;;;;4.95;2.13;;;;;;;;;;5050679;28;20032;-64
2021/06/14 09:43:08;;;;;;;4.30;2.30;;;;;;;;;;5051232;28;20021;-64
2021/06/14 09:45:39;;;;;;;3.90;2.00;;;;;;;;;;5050812;28;20025;-64
2021/06/14 09:48:14;;;;;;;3.65;2.03;;;;;;;;;;5050366;28;20032;-64
2021/06/14 09:50:42;;;;;;;5.85;2.30;;;;;;;;;;5050166;28;20032;-64
2021/06/14 09:53:09;;;;;;;6.43;2.70;;;;;;;;;;5050436;28;20369;-63
2021/06/14 09:55:34;;;;;;;6.82;2.60;;;;;;;;;;5050153;28;20031;-64
2021/06/14 09:58:13;;;;;;;8.40;2.75;;;;;;;;;;5047236;28;20456;-63
2021/06/14 10:00:58;;;;;;;5.90;2.92;;;;;;;;;;5050347;28;20024;-64
2021/06/14 10:03:24;;;;;;;7.82;2.35;;;;;;;;;;5049941;28;20665;-64
2021/06/14 10:05:51;;;;;;;4.63;2.50;;;;;;;;;;5050138;28;20684;-64
2021/06/14 10:08:25;;;;;;;4.93;2.40;;;;;;;;;;5050334;28;20083;-65
2021/06/14 10:10:59;;;;;;;6.13;2.70;;;;;;;;;;5049807;28;20017;-65
2021/06/14 10:13:30;;;;;;;5.88;3.17;;;;;;;;;;5054688;28;20123;-63
2021/06/14 10:16:00;;;;;;;6.05;2.78;;;;;;;;;;5050317;28;20071;-65
2021/06/14 10:18:29;;;;;;;4.75;2.25;;;;;;;;;;5049736;28;20021;-64
2021/06/14 10:20:54;;;;;;;3.88;2.42;;;;;;;;;;5049645;28;20037;-63
2021/06/14 10:23:19;;;;;;;8.32;2.40;;;;;;;;;;5050135;28;20032;-63
2021/06/14 10:25:44;;;;;;;4.47;2.27;;;;;;;;;;5049648;28;20079;-64
2021/06/14 10:28:10;;;;;;;4.00;2.27;;;;;;;;;;5049915;28;20270;-64
2021/06/14 10:30:35;;;;;;;8.35;2.90;;;;;;;;;;5049307;28;20715;-64
2021/06/14 10:33:02;;;;;;;4.40;2.45;;;;;;;;;;5049270;28;20514;-63
2021/06/14 10:35:28;;;;;;;6.60;2.85;;;;;;;;;;5049334;28;20029;-64
2021/06/14 10:37:53;;;;;;;5.53;2.78;;;;;;;;;;5049626;28;20044;-64
2021/06/14 10:40:25;;;;;;;6.35;2.85;;;;;;;;;;5049331;28;20029;-65
2021/06/14 10:42:50;;;;;;;4.07;2.45;;;;;;;;;;5049295;28;20040;-63
2021/06/14 10:45:18;;;;;;;4.77;2.40;;;;;;;;;;5049598;28;20017;-63
2021/06/14 10:47:45;;;;;;;7.38;2.50;;;;;;;;;;5049607;28;20264;-64
2021/06/14 10:50:12;;;;;;;4.25;2.45;;;;;;;;;;5049617;28;20852;-64
2021/06/14 10:52:44;;;;;;;6.60;2.45;;;;;;;;;;5049301;28;20059;-64
2021/06/14 10:55:11;;;;;;;6.75;3.03;;;;;;;;;;5047749;28;20063;-64
2021/06/14 10:57:36;;;;;;;6.80;2.45;;;;;;;;;;5048753;28;20183;-63
2021/06/14 11:00:03;;;;;;;4.25;2.33;;;;;;;;;;5048847;28;20035;-63
2021/06/14 11:02:28;;;;;;;5.18;2.83;;;;;;;;;;5048680;28;20052;-63
2021/06/14 11:05:04;;;;;;;5.03;2.42;;;;;;;;;;5049185;28;20624;-64
2021/06/14 11:07:29;;;;;;;5.35;2.20;;;;;;;;;;5049363;28;20411;-65
2021/06/14 11:09:55;;;;;;;4.22;2.35;;;;;;;;;;5049256;28;20025;-64
2021/06/14 11:12:29;;;;;;;9.43;3.25;;;;;;;;;;5049014;28;20021;-64
2021/06/14 11:14:54;;;;;;;7.10;3.05;;;;;;;;;;5044094;28;20037;-64
2021/06/14 11:17:24;;;;;;;4.82;2.30;;;;;;;;;;5049090;28;20031;-64
2021/06/14 11:19:58;;;;;;;5.00;2.47;;;;;;;;;;5048936;28;20025;-65
2021/06/14 11:22:31;;;;;;;5.32;2.40;;;;;;;;;;5048624;28;20021;-64
2021/06/14 11:24:57;;;;;;;6.80;2.53;;;;;;;;;;5048814;28;20024;-63
2021/06/14 11:27:22;;;;;;;4.93;2.28;;;;;;;;;;5048776;28;20376;-64
2021/06/14 11:29:51;;;;;;;5.65;3.03;;;;;;;;;;5048924;28;20078;-64
2021/06/14 11:32:19;;;;;;;7.07;2.97;;;;;;;;;;5048541;28;20053;-64
2021/06/14 11:34:46;;;;;;;6.68;2.60;;;;;;;;;;5049338;28;20086;-64
2021/06/14 11:37:12;;;;;;;4.38;2.38;;;;;;;;;;5048297;28;20455;-64
2021/06/14 11:39:37;;;;;;;11.57;2.60;;;;;;;;;;5048838;28;20100;-65
2021/06/14 11:42:10;;;;;;;6.63;2.65;;;;;;;;;;5048799;28;20023;-65
2021/06/14 11:44:35;;;;;;;4.45;2.55;;;;;;;;;;5050364;28;20024;-64
2021/06/14 11:47:14;;;;;;;4.45;2.30;;;;;;;;;;5047701;28;20376;-65
2021/06/14 11:49:40;;;;;;;7.97;3.05;;;;;;;;;;5046940;28;20021;-65
2021/06/14 11:52:25;;;;;;;6.10;2.17;;;;;;;;;;5047392;28;20147;-64
2021/06/14 11:54:53;;;;;;;4.82;2.42;;;;;;;;;;5060635;28;20041;-65
2021/06/14 11:57:24;;;;;;;5.68;2.47;;;;;;;;;;5048169;28;20021;-65
2021/06/14 11:59:49;;;;;;;5.75;2.42;;;;;;;;;;5048193;28;20029;-65
2021/06/14 12:02:20;;;;;;;4.97;2.70;;;;;;;;;;5046985;28;20127;-65
2021/06/14 12:04:45;;;;;;;7.50;2.50;;;;;;;;;;5044771;28;20029;-64
2021/06/14 12:07:10;;;;;;;8.05;2.90;;;;;;;;;;5051614;28;20074;-64
2021/06/14 12:09:40;;;;;;;6.33;2.87;;;;;;;;;;5052261;28;20486;-65
2021/06/14 12:12:06;;;;;;;3.85;2.38;;;;;;;;;;5051449;28;20784;-64
2021/06/14 12:14:34;;;;;;;4.47;2.30;;;;;;;;;;5051964;28;20453;-64
2021/06/14 12:17:01;;;;;;;5.25;2.20;;;;;;;;;;5051980;28;20013;-64
2021/06/14 12:19:29;;;;;;;7.45;2.30;;;;;;;;;;5051995;28;20024;-63
2021/06/14 12:21:57;;;;;;;5.80;2.83;;;;;;;;;;5052703;28;20025;-64
2021/06/14 12:24:23;;;;;;;4.32;2.33;;;;;;;;;;5051251;28;20025;-63
2021/06/14 12:26:48;;;;;;;4.53;2.10;;;;;;;;;;5051746;28;20135;-63
2021/06/14 12:29:18;;;;;;;6.88;2.90;;;;;;;;;;5050621;28;20037;-64
2021/06/14 12:31:43;;;;;;;5.82;2.85;;;;;;;;;;5049391;28;20108;-65
2021/06/14 12:34:08;;;;;;;8.93;3.47;;;;;;;;;;5051259;28;20044;-65
2021/06/14 12:36:33;;;;;;;5.43;2.33;;;;;;;;;;5047817;28;20033;-64
2021/06/14 12:38:59;;;;;;;5.72;2.72;;;;;;;;;;5047456;28;20352;-63
2021/06/14 12:41:24;;;;;;;5.57;2.78;;;;;;;;;;5050093;28;20021;-65
2021/06/14 12:43:49;;;;;;;7.00;2.40;;;;;;;;;;5050863;28;20021;-64
2021/06/14 12:46:15;;;;;;;6.67;2.87;;;;;;;;;;5049031;28;20039;-65
2021/06/14 12:48:40;;;;;;;4.45;2.20;;;;;;;;;;5049820;28;20367;-63
2021/06/14 12:51:07;;;;;;;4.88;2.35;;;;;;;;;;5050182;28;20013;-64
2021/06/14 12:53:33;;;;;;;4.90;2.20;;;;;;;;;;5050783;28;20388;-64
2021/06/14 12:55:59;;;;;;;4.30;1.88;;;;;;;;;;5050975;28;20027;-64
2021/06/14 12:58:26;;;;;;;3.90;2.00;;;;;;;;;;5049719;28;20025;-64
2021/06/14 13:00:55;;;;;;;5.80;2.63;;;;;;;;;;5049598;28;20070;-65
2021/06/14 13:03:20;;;;;;;;;;;;;;;;;;5050525;28;20032;-65
2021/06/14 13:05:47;;;;;;;5.43;3.40;;;;;;;;;;5049735;28;19912;-64
2021/06/14 13:08:19;;;;;;;4.78;2.30;;;;;;;;;;5051332;28;20068;-64
2021/06/14 13:10:51;;;;;;;4.85;2.60;;;;;;;;;;5047388;28;20036;-64
2021/06/14 13:13:20;;;;;;;9.32;2.97;;;;;;;;;;5045466;28;20117;-65
2021/06/14 13:15:47;;;;;;;9.95;2.42;;;;;;;;;;5049781;28;20507;-64
2021/06/14 13:18:16;;;;;;;7.32;2.35;;;;;;;;;;5050787;28;20423;-64
2021/06/14 13:20:43;;;;;;;4.90;2.90;;;;;;;;;;5050368;28;20055;-64
2021/06/14 13:23:08;;;;;;;3.55;2.28;;;;;;;;;;5050203;28;20044;-65
2021/06/14 13:25:36;;;;;;;6.07;2.60;;;;;;;;;;5050298;28;20025;-65
2021/06/14 13:28:01;;;;;;;6.47;2.45;;;;;;;;;;5044287;28;20278;-64
2021/06/14 13:30:35;;;;;;;5.93;2.55;;;;;;;;;;5047796;28;20029;-64
2021/06/14 13:35:26;;;;;;;5.93;2.65;;;;;;;;;;5050620;28;20508;-64
2021/06/14 13:37:53;;;;;;;4.70;2.30;;;;;;;;;;5050395;28;20029;-63
2021/06/14 13:40:20;;;;;;;4.05;2.10;;;;;;;;;;5045798;28;20091;-64
2021/06/14 13:42:47;;;;;;;5.28;2.33;;;;;;;;;;5053967;28;20017;-64
2021/06/14 13:45:13;;;;;;;4.38;2.03;;;;;;;;;;5048881;28;20025;-63
2021/06/14 13:47:38;;;;;;;2.60;2.00;;;;;;;;;;5047634;28;20146;-64
2021/06/14 13:50:10;;;;;;;10.90;2.78;;;;;;;;;;5047730;28;20033;-64
2021/06/14 13:52:36;;;;;;;5.25;2.60;;;;;;;;;;5048320;28;20788;-64
2021/06/14 13:55:03;;;;;;;5.22;2.38;;;;;;;;;;5047539;28;20033;-62
2021/06/14 13:57:28;;;;;;;3.72;2.33;;;;;;;;;;5048320;28;20036;-64
2021/06/14 14:00:13;;;;;;;4.50;2.20;;;;;;;;;;5050419;28;20398;-63
2021/06/14 14:02:46;;;;;;;8.48;2.60;;;;;;;;;;5049997;28;20033;-63
2021/06/14 14:05:21;;;;;;;6.22;2.47;;;;;;;;;;5050491;28;20099;-64
2021/06/14 14:07:46;;;;;;;6.18;2.70;;;;;;;;;;5049958;28;20025;-65
2021/06/14 14:10:12;;;;;;;3.73;2.20;;;;;;;;;;5050580;28;20083;-63
2021/06/14 14:12:37;;;;;;;7.35;2.63;;;;;;;;;;5050164;28;20314;-64
2021/06/14 14:15:03;;;;;;;5.60;2.50;;;;;;;;;;5049991;28;20033;-63
2021/06/14 14:17:28;;;;;;;4.78;2.10;;;;;;;;;;5049847;28;20342;-62
2021/06/14 14:19:54;;;;;;;4.37;1.90;;;;;;;;;;5050454;28;20112;-64
2021/06/14 14:22:20;;;;;;;10.27;2.40;;;;;;;;;;5049934;28;20600;-63
2021/06/14 14:24:45;;;;;;;4.20;2.03;;;;;;;;;;5050018;28;20107;-64
2021/06/14 14:27:10;;;;;;;3.77;2.07;;;;;;;;;;5047792;28;20025;-63
2021/06/14 14:29:37;;;;;;;5.73;2.53;;;;;;;;;;5049533;28;20795;-63
2021/06/14 14:32:06;;;;;;;6.03;1.92;;;;;;;;;;5048530;28;20382;-63
2021/06/14 14:34:39;;;;;;;4.15;2.00;;;;;;;;;;5046964;28;20036;-65
2021/06/14 14:37:05;;;;;;;4.55;2.00;;;;;;;;;;5047042;28;20060;-63
2021/06/14 14:39:31;;;;;;;9.32;1.95;;;;;;;;;;5048739;28;20072;-64
2021/06/14 14:41:58;;;;;;;5.40;1.90;;;;;;;;;;5049125;28;20075;-63
2021/06/14 14:44:24;;;;;;;3.90;2.22;;;;;;;;;;5053578;28;20048;-63
2021/06/14 14:46:50;;;;;;;5.38;2.03;;;;;;;;;;5048769;28;20051;-63
2021/06/14 14:49:16;;;;;;;4.13;1.90;;;;;;;;;;5049010;28;20052;-63